Linton-on-ouse, United Kingdom
Current Conditions -  °F | °C
As of 8:50 AM on Monday 20 Oct 2014 (Local Time) from EGXU Reporting Station
Broken Clouds Broken Clouds  
Wind Chill: 11°   Ceiling: 4300
Heat Index: 11°   Visibility: NA
Dew Point: 10°   Wind: 8mph
Humidity: 94%   Direction: 230°SW
Pressure: 29.85"   Gusts: NA
Location:  54.05°N, 1.25°W
Report Text: EGXU 200750Z AUTO 23007KT //// // BKN043/// 11/10 Q1011
Loading
Personal Weather Stations






























Interactive Weather Map
Tropical Storm Tracking
New forecast layout! Learn more

10-Day Weather Forecast

Advertisements
Track Severe Weather on mobile